MAPA DE AEROPUERTO

INFORMACIÓN METAR y TAF


Deprecated: The each() function is deprecated. This message will be suppressed on further calls in /home/customer/www/clickair-va.com/public_html/VAM/vam/helpers/get_metar.php on line 20
METAR FOR HECA
ADDS - METARS form results

(1635 UTC 13 January 2023)
Data provider http://aviationweather.gov/metar/data/
 
METAR text: HECA 131600Z 26008KT 9999 BKN025 18/05 Q1017 NOSIG
Conditions at: HECA (CAIRO INTL AIRPO, EG) observed 1600 UTC 13 January 2023
Temperature: 18.0°C (64°F)
Dewpoint: 5.0°C (41°F) [RH = 42%]
Pressure (altimeter): 30.03 inches Hg (1017.0 mb)
Winds: from the W (260 degrees) at 9 MPH (8 knots; 4.1 m/s)
Visibility: 6 or more miles (10+ km)
Ceiling: 2500 feet AGL
Clouds: broken clouds at 2500 feet AGL
Weather: no significant weather observed at this time

Forecast for: HECA (CAIRO INTL AIRPO, EG)
Text: TAF HECA 131100Z 1312/1418 20010KT 9999 FEW025
Forecast period: 1200 UTC 13 January 2023 to 1800 UTC 14 January 2023
Forecast type: FROM: standard forecast or significant change
Winds: from the SSW (200 degrees) at 12 MPH (10 knots; 5.1 m/s)
Visibility: 6 or more miles (10+ km)
Ceiling: at least 12,000 feet AGL
Clouds: few clouds at 2500 feet AGL
Weather: no significant weather forecast for this period